Pagrindinis puslapis
METAR-TAF:

METAR-TAF

Oro uostai :

Notodden, Norvegija

platuma: 59-34N, ilguma: 009-13E, Aukštis: 19 m

Dabartinis oras

Ataskaita buvo paskelbta 41 minutes, ne 13:50 UTC
Vėjas 6 kt iš Vakarų/Šiaurės Vakarų
Temperatūra 7°C
Drėgmė 57%
Slėgis 1018 hPa
Matomumas 10 km arba daugiau
Mažai debesys ne aukštis 3200 ft, Liūtiniai kamuoliniai debesys.
Su prošvaistėmis ne aukštis 4200 ft
Liūtis kaimynystėje,

METAR: ENNO 201350Z 29006KT 9999 VCSH FEW032CB BKN042 07/M01 Q1018

Laikas: 16:31 (14:31 UTC)

Prognozė

Ataskaita buvo paskelbta 1 valandą ir 45 minutes, ne 12:46 UTC
Prognozė galioja nuo 20 metu 12 UTC su 20 metu 15 UTC
Vėjas 8 kt iš Vakarų/Šiaurės Vakarų
Matomumas 10 km arba daugiau
Su prošvaistėmis ne aukštis 5000 ft
Laikinai
nuo 20 metu 12 UTC su 20 metu 15 UTC
Vėjas 15 kt iš Šiaurės
Matomumas: 2500 m
Su prošvaistėmis ne aukštis 1400 ft
Išsisklaidę debesys ne aukštis 2000 ft, Liūtiniai kamuoliniai debesys.
sniegas,

TAF: ENNO 201246Z 2012/2015 29008KT 9999 BKN050 TEMPO 2012/2015 35015KT 2500 SHSN BKN014 SCT020CB

Orai ataskaitas ir orų prognozės (METAR, TAF).

turimą stotys yra geltonos ir raudonos taškus žemėlapyje.

Perkelti pele per norėdami pamatyti stoties vardą.

Tada spustelėkite, norėdami matyti oro stebėjimo ir prognozės.

Norėdami pakeisti žemėlapį: spustelėkite ant žalios mygtukų su juodo kryžiaus žemyn,; žalią mygtuką su brūkšneliu, jei norite nutolinti; arba žalių rodyklių gretimoms žemėlapius.


METAR-TAF: